createdAt,value
2019-03-12T00:02:21.585Z,14.03
2019-03-12T00:04:52.980Z,12.47
2019-03-12T00:07:21.956Z,16.57
2019-03-12T00:09:53.713Z,14.78
2019-03-12T00:12:22.935Z,17.32
2019-03-12T00:14:54.795Z,16.50
2019-03-12T00:17:27.606Z,14.15
2019-03-12T00:19:59.417Z,14.60
2019-03-12T00:22:30.264Z,18.27
2019-03-12T00:25:02.683Z,19.65
2019-03-12T00:27:36.569Z,9.38
2019-03-12T00:30:07.657Z,17.25
2019-03-12T00:32:39.855Z,15.68
2019-03-12T00:35:15.419Z,12.00
2019-03-12T00:37:39.849Z,13.95
2019-03-12T00:40:09.309Z,11.75
2019-03-12T00:42:40.123Z,16.20
2019-03-12T00:45:10.055Z,14.75
2019-03-12T00:47:40.192Z,15.50
2019-03-12T00:50:10.207Z,15.30
2019-03-12T00:55:08.912Z,11.12
2019-03-12T00:57:41.227Z,14.20
2019-03-12T01:00:12.884Z,17.40
2019-03-12T01:02:41.843Z,12.75
2019-03-12T01:05:14.685Z,13.62
2019-03-12T01:07:45.925Z,19.37
2019-03-12T01:10:15.369Z,14.40
2019-03-12T01:12:46.566Z,16.93
2019-03-12T01:17:47.965Z,21.17
2019-03-12T01:20:18.182Z,18.27
2019-03-12T01:22:47.218Z,20.70
2019-03-12T01:25:19.109Z,22.73
2019-03-12T01:27:51.897Z,21.77
2019-03-12T01:33:56.270Z,22.45
2019-03-12T01:36:25.256Z,19.25
2019-03-12T01:38:58.260Z,20.00
2019-03-12T01:41:29.833Z,23.07
2019-03-12T01:43:57.962Z,26.17
2019-03-12T01:46:27.977Z,21.68
2019-03-12T01:48:58.562Z,24.20
2019-03-12T01:51:27.526Z,24.70
2019-03-12T01:53:56.504Z,20.92
2019-03-12T01:56:25.522Z,21.95
2019-03-12T01:58:57.154Z,20.88
2019-03-12T02:01:26.118Z,21.20
2019-03-12T02:03:55.454Z,23.25
2019-03-12T02:06:26.634Z,26.80
2019-03-12T02:08:55.686Z,24.95
2019-03-12T02:11:31.686Z,28.47
2019-03-12T02:14:00.654Z,24.57
2019-03-12T02:16:31.270Z,22.77
2019-03-12T02:19:00.514Z,27.45
2019-03-12T02:21:29.492Z,19.65
2019-03-12T02:23:58.523Z,26.55
2019-03-12T02:26:27.547Z,27.60
2019-03-12T02:28:56.564Z,32.70
2019-03-12T02:31:25.606Z,24.80
2019-03-12T02:33:54.634Z,22.73
2019-03-12T02:36:23.734Z,32.95
2019-03-12T02:38:52.748Z,27.90
2019-03-12T02:41:27.754Z,19.57
2019-03-12T02:46:44.896Z,27.20
2019-03-12T02:49:13.858Z,24.43
2019-03-12T02:51:44.363Z,32.53
2019-03-12T02:54:13.344Z,26.68
2019-03-12T02:56:46.103Z,25.82
2019-03-12T02:59:19.743Z,23.95
2019-03-12T03:01:51.933Z,25.52
2019-03-12T03:04:21.075Z,26.00
2019-03-12T03:07:02.950Z,25.32
2019-03-12T03:09:31.285Z,28.90
2019-03-12T03:12:08.993Z,24.50
2019-03-12T03:14:39.797Z,27.22
2019-03-12T03:17:11.484Z,23.92
2019-03-12T03:19:41.163Z,24.35
2019-03-12T03:22:10.100Z,26.90
2019-03-12T03:24:42.508Z,24.60
2019-03-12T03:27:11.457Z,33.33
2019-03-12T03:29:40.523Z,27.40
2019-03-12T03:32:12.686Z,29.60
2019-03-12T03:34:42.108Z,25.55
2019-03-12T03:37:14.364Z,24.65
2019-03-12T03:39:42.697Z,15.68
2019-03-12T03:42:13.336Z,20.57
2019-03-12T03:44:42.370Z,23.85
2019-03-12T03:47:14.322Z,26.97
2019-03-12T03:49:43.315Z,24.75
2019-03-12T03:52:18.697Z,21.33
2019-03-12T03:54:43.917Z,17.40
2019-03-12T03:57:15.497Z,24.82
2019-03-12T03:59:44.497Z,22.95
2019-03-12T04:02:21.697Z,23.75
2019-03-12T04:04:55.937Z,21.85
2019-03-12T04:07:24.922Z,25.05
2019-03-12T04:09:53.990Z,17.35
2019-03-12T04:12:22.954Z,14.38
2019-03-12T04:14:51.931Z,25.08
2019-03-12T04:17:21.737Z,24.52
2019-03-12T04:19:51.285Z,26.12
2019-03-12T04:22:20.387Z,23.57
2019-03-12T04:24:49.420Z,27.83
2019-03-12T04:27:18.439Z,24.27
2019-03-12T04:29:47.476Z,24.75
2019-03-12T04:32:16.455Z,20.27
2019-03-12T04:34:48.692Z,21.52
2019-03-12T04:37:21.802Z,19.62
2019-03-12T04:39:55.234Z,19.82
2019-03-12T04:42:24.186Z,18.57
2019-03-12T04:44:54.884Z,21.87
2019-03-12T04:47:23.849Z,17.98
2019-03-12T04:49:52.814Z,21.20
2019-03-12T04:52:21.766Z,20.57
2019-03-12T04:54:53.558Z,21.73
2019-03-12T04:57:24.870Z,21.93
2019-03-12T04:59:56.874Z,16.77
2019-03-12T05:02:26.067Z,22.87
2019-03-12T05:04:55.092Z,23.90
2019-03-12T05:07:24.052Z,18.70
2019-03-12T05:09:58.624Z,15.13
2019-03-12T05:12:30.439Z,19.70
2019-03-12T05:14:58.239Z,16.25
2019-03-12T05:17:27.206Z,18.70
2019-03-12T05:19:59.698Z,24.12
2019-03-12T05:22:28.669Z,19.23
2019-03-12T05:24:57.677Z,20.10
2019-03-12T05:27:26.689Z,21.37
2019-03-12T05:29:58.539Z,19.85
2019-03-12T05:32:31.763Z,21.50
2019-03-12T05:35:00.821Z,23.02
2019-03-12T05:37:29.784Z,17.40
2019-03-12T05:40:00.418Z,19.23
2019-03-12T05:42:35.345Z,17.00
2019-03-12T05:45:05.681Z,17.10
2019-03-12T05:47:34.651Z,18.82
2019-03-12T05:50:08.359Z,15.93
2019-03-12T05:52:37.481Z,22.48
2019-03-12T05:55:07.595Z,18.80
2019-03-12T05:57:36.725Z,22.27
2019-03-12T06:00:07.233Z,21.27
2019-03-12T06:02:36.307Z,22.00
2019-03-12T06:05:07.399Z,12.40
2019-03-12T06:07:36.371Z,12.95
2019-03-12T06:10:08.480Z,17.60
2019-03-12T06:12:37.831Z,22.80
2019-03-12T06:15:12.355Z,13.72
2019-03-12T06:17:43.137Z,18.30
2019-03-12T06:20:14.494Z,15.68
2019-03-12T06:22:43.482Z,22.45
2019-03-12T06:25:13.568Z,16.75
2019-03-12T06:30:13.354Z,18.05
2019-03-12T06:35:29.809Z,15.45
2019-03-12T06:38:09.205Z,21.57
2019-03-12T06:40:54.858Z,17.70
2019-03-12T06:43:31.390Z,18.02
2019-03-12T06:46:16.407Z,20.75
2019-03-12T06:48:49.919Z,14.47
2019-03-12T06:51:32.540Z,13.18
2019-03-12T06:54:03.134Z,23.07
2019-03-12T06:56:33.729Z,17.85
2019-03-12T06:59:04.428Z,17.98
2019-03-12T07:01:57.072Z,16.23
2019-03-12T07:04:30.182Z,16.82
2019-03-12T07:07:17.082Z,16.15
2019-03-12T07:10:04.454Z,21.15
2019-03-12T07:12:36.974Z,11.30
2019-03-12T07:15:09.439Z,13.72
2019-03-12T07:17:58.338Z,19.07
2019-03-12T07:20:28.996Z,13.80
2019-03-12T07:23:02.197Z,15.63
2019-03-12T07:25:43.075Z,15.65
2019-03-12T07:28:16.583Z,16.12
2019-03-12T07:30:49.924Z,11.10
2019-03-12T07:33:20.547Z,14.68
2019-03-12T07:35:54.021Z,11.63
2019-03-12T07:38:41.022Z,11.68
2019-03-12T07:41:25.048Z,15.15
2019-03-12T07:44:02.878Z,15.63
2019-03-12T07:46:41.325Z,12.50
2019-03-12T07:49:14.532Z,15.25
2019-03-12T07:51:57.155Z,16.30
2019-03-12T07:54:43.823Z,12.95
2019-03-12T07:57:23.249Z,11.65
2019-03-12T07:59:53.936Z,11.85
2019-03-12T08:02:49.111Z,12.40
2019-03-12T08:05:19.701Z,13.60
2019-03-12T08:07:50.353Z,12.25
2019-03-12T08:10:26.798Z,12.70
2019-03-12T08:13:00.952Z,17.00
2019-03-12T08:15:45.030Z,11.10
2019-03-12T08:18:25.730Z,14.18
2019-03-12T08:20:56.333Z,10.35
2019-03-12T08:23:45.130Z,12.10
2019-03-12T08:26:30.450Z,12.63
2019-03-12T08:29:10.066Z,10.50
2019-03-12T08:31:57.155Z,10.15
2019-03-12T08:34:46.577Z,9.73
2019-03-12T08:37:17.159Z,10.70
2019-03-12T08:40:02.637Z,17.25
2019-03-12T08:42:33.609Z,10.15
2019-03-12T08:45:15.318Z,14.18
2019-03-12T08:47:54.299Z,18.30
2019-03-12T08:50:37.025Z,15.35
2019-03-12T08:53:12.216Z,14.93
2019-03-12T08:55:45.695Z,11.00
2019-03-12T08:58:17.375Z,12.13
2019-03-12T09:00:51.569Z,11.53
2019-03-12T09:03:29.219Z,17.05
2019-03-12T09:06:16.295Z,15.18
2019-03-12T09:08:49.730Z,14.58
2019-03-12T09:11:27.635Z,17.32
2019-03-12T09:13:59.100Z,11.53
2019-03-12T09:16:54.424Z,15.83
2019-03-12T09:19:29.079Z,16.20
2019-03-12T09:22:02.366Z,12.07
2019-03-12T09:24:37.222Z,15.80
2019-03-12T09:27:07.834Z,11.35
2019-03-12T09:29:43.898Z,11.35
2019-03-12T09:32:20.302Z,13.50
2019-03-12T09:34:59.863Z,16.67
2019-03-12T09:37:42.410Z,13.85
2019-03-12T09:40:18.454Z,15.25
2019-03-12T09:43:08.298Z,13.48
2019-03-12T09:45:42.776Z,15.40
2019-03-12T09:48:19.192Z,14.15
2019-03-12T09:50:50.288Z,13.15
2019-03-12T09:53:29.675Z,12.58
2019-03-12T09:56:06.190Z,14.28
2019-03-12T09:58:53.004Z,9.93
2019-03-12T10:01:40.002Z,8.70
2019-03-12T10:04:18.465Z,10.53
2019-03-12T10:07:01.201Z,17.52
2019-03-12T10:09:31.819Z,12.30
2019-03-12T10:12:02.491Z,11.65
2019-03-12T10:14:53.069Z,15.05
2019-03-12T10:17:38.641Z,11.05
2019-03-12T10:20:13.036Z,10.00
2019-03-12T10:22:43.697Z,11.80
2019-03-12T10:25:30.619Z,11.15
2019-03-12T10:28:19.490Z,10.85
2019-03-12T10:33:47.295Z,9.43
2019-03-12T10:36:20.983Z,16.48
2019-03-12T10:39:22.678Z,12.68
2019-03-12T10:41:56.037Z,10.85
2019-03-12T10:44:26.971Z,12.70
2019-03-12T10:46:57.646Z,12.03
2019-03-12T10:49:37.284Z,12.50
2019-03-12T10:52:00.637Z,13.65
2019-03-12T10:54:29.601Z,14.68
2019-03-12T10:57:02.963Z,13.30
2019-03-12T10:59:31.985Z,11.63
2019-03-12T11:02:01.415Z,11.95
2019-03-12T11:04:32.059Z,8.50
2019-03-12T11:07:15.501Z,8.18
2019-03-12T11:09:35.915Z,10.45
2019-03-12T11:12:04.930Z,12.55
2019-03-12T11:14:33.888Z,11.45
2019-03-12T11:17:04.090Z,9.90
2019-03-12T11:19:34.683Z,8.10
2019-03-12T11:22:03.643Z,6.90
2019-03-12T11:24:33.804Z,7.83
2019-03-12T11:27:04.355Z,9.30
2019-03-12T11:29:33.322Z,10.45
2019-03-12T11:32:05.447Z,10.68
2019-03-12T11:34:38.541Z,9.33
2019-03-12T11:37:09.500Z,6.15
2019-03-12T11:39:40.940Z,9.93
2019-03-12T11:42:10.108Z,10.48
2019-03-12T11:44:42.968Z,5.73
2019-03-12T11:47:11.953Z,6.15
2019-03-12T11:49:43.254Z,9.68
2019-03-12T11:52:12.289Z,8.80
2019-03-12T11:54:43.394Z,7.20
2019-03-12T11:57:15.834Z,10.13
2019-03-12T11:59:44.887Z,12.37
2019-03-12T12:02:16.806Z,8.75
2019-03-12T12:04:45.752Z,6.35
2019-03-12T12:07:14.758Z,10.15
2019-03-12T12:09:43.753Z,10.45
2019-03-12T12:12:16.038Z,8.13
2019-03-12T12:14:44.350Z,8.28
2019-03-12T12:17:17.270Z,10.50
2019-03-12T12:19:51.043Z,10.03
2019-03-12T12:22:20.330Z,11.83
2019-03-12T12:24:49.320Z,6.37
2019-03-12T12:27:18.302Z,6.63
2019-03-12T12:29:48.830Z,6.80
2019-03-12T12:32:22.274Z,8.90
2019-03-12T12:34:57.282Z,9.30
2019-03-12T12:37:26.534Z,9.53
2019-03-12T12:39:57.138Z,8.40
2019-03-12T12:42:28.803Z,8.20
2019-03-12T12:44:57.774Z,7.65
2019-03-12T12:47:28.365Z,13.08
2019-03-12T12:49:57.350Z,8.43
2019-03-12T12:52:27.831Z,12.88
2019-03-12T12:54:56.831Z,10.60
2019-03-12T12:57:28.647Z,7.40
2019-03-12T12:59:57.686Z,9.08
2019-03-12T13:02:40.483Z,7.70
2019-03-12T13:05:10.632Z,8.00
2019-03-12T13:07:40.826Z,9.23
2019-03-12T13:10:13.253Z,12.05
2019-03-12T13:12:47.850Z,6.00
2019-03-12T13:15:16.808Z,11.65
2019-03-12T13:17:47.816Z,8.70
2019-03-12T13:20:16.565Z,11.05
2019-03-12T13:22:45.626Z,10.60
2019-03-12T13:25:18.095Z,13.10
2019-03-12T13:27:49.288Z,14.50
2019-03-12T13:30:19.322Z,11.70
2019-03-12T13:35:17.021Z,13.28
2019-03-12T13:37:46.105Z,16.52
2019-03-12T13:40:16.896Z,15.10
2019-03-12T13:42:45.851Z,16.25
2019-03-12T13:45:17.668Z,21.60
2019-03-12T13:47:46.627Z,18.23
2019-03-12T13:50:17.825Z,15.10
2019-03-12T13:52:52.100Z,19.80
2019-03-12T13:55:23.059Z,12.63
2019-03-12T13:57:52.028Z,16.85
2019-03-12T14:00:21.682Z,15.10
2019-03-12T14:02:54.123Z,22.22
2019-03-12T14:05:23.098Z,20.27
2019-03-12T14:07:54.666Z,17.90
2019-03-12T14:10:29.147Z,15.38
2019-03-12T14:12:58.150Z,13.03
2019-03-12T14:15:32.357Z,15.40
2019-03-12T14:18:01.430Z,13.60
2019-03-12T14:20:46.155Z,11.85
2019-03-12T14:23:32.253Z,13.10
2019-03-12T14:26:03.873Z,12.80
2019-03-12T14:28:32.955Z,12.50
2019-03-12T14:31:06.281Z,11.85
2019-03-12T14:33:37.380Z,14.10
2019-03-12T14:36:06.409Z,14.47
2019-03-12T14:38:37.136Z,15.10
2019-03-12T14:41:08.269Z,14.33
2019-03-12T14:43:37.223Z,11.68
2019-03-12T14:46:09.160Z,10.72
2019-03-12T14:48:46.872Z,11.85
2019-03-12T14:51:23.367Z,13.90
2019-03-12T14:53:58.108Z,10.78
2019-03-12T14:56:30.250Z,9.28
2019-03-12T14:59:06.274Z,10.08
2019-03-12T15:01:35.559Z,15.50
2019-03-12T15:04:08.614Z,10.78
2019-03-12T15:06:37.591Z,12.03
2019-03-12T15:09:10.868Z,12.10
2019-03-12T15:11:41.317Z,15.20
2019-03-12T15:14:14.106Z,13.83
2019-03-12T15:16:43.158Z,15.20
2019-03-12T15:19:17.596Z,12.63
2019-03-12T15:21:50.792Z,12.15
2019-03-12T15:24:19.755Z,9.48
2019-03-12T15:26:52.718Z,12.70
2019-03-12T15:29:21.704Z,8.48
2019-03-12T15:32:03.645Z,14.80
2019-03-12T15:34:24.977Z,8.80
2019-03-12T15:36:53.953Z,14.43
2019-03-12T15:39:23.941Z,9.80
2019-03-12T15:44:26.672Z,8.88
2019-03-12T15:46:56.109Z,8.60
2019-03-12T15:49:25.461Z,12.30
2019-03-12T15:51:55.751Z,10.00
2019-03-12T15:54:29.807Z,9.48
2019-03-12T15:56:58.771Z,11.18
2019-03-12T15:59:30.137Z,8.98
2019-03-12T16:01:59.343Z,10.40
2019-03-12T16:04:28.395Z,10.25
2019-03-12T16:07:01.528Z,6.42
2019-03-12T16:09:28.145Z,13.15
2019-03-12T16:11:58.018Z,9.50
2019-03-12T16:14:27.274Z,14.70
2019-03-12T16:16:58.013Z,9.38
2019-03-12T16:19:26.971Z,9.43
2019-03-12T16:21:59.050Z,10.30
2019-03-12T16:24:28.290Z,11.03
2019-03-12T16:26:57.297Z,11.45
2019-03-12T16:29:26.307Z,6.28
2019-03-12T16:31:55.313Z,8.70
2019-03-12T16:37:02.854Z,15.32
2019-03-12T16:39:35.667Z,13.62
2019-03-12T16:42:07.472Z,8.50
2019-03-12T16:44:36.445Z,13.35
2019-03-12T16:47:05.509Z,12.20
2019-03-12T16:49:34.768Z,10.03
2019-03-12T16:52:03.718Z,9.27
2019-03-12T16:54:32.740Z,9.88
2019-03-12T16:57:01.693Z,6.90
2019-03-12T16:59:30.889Z,11.70
2019-03-12T17:01:59.824Z,13.97
2019-03-12T17:04:28.796Z,12.78
2019-03-12T17:06:57.748Z,19.17
2019-03-12T17:09:27.029Z,13.88
2019-03-12T17:11:58.181Z,15.38
2019-03-12T17:14:38.237Z,18.15
2019-03-12T17:17:02.922Z,14.78
2019-03-12T17:19:32.226Z,16.30
2019-03-12T17:22:01.170Z,16.13
2019-03-12T17:24:33.288Z,14.68
2019-03-12T17:27:02.220Z,15.63
2019-03-12T17:29:32.809Z,19.37
2019-03-12T17:32:11.342Z,16.25
2019-03-12T17:34:42.844Z,16.80
2019-03-12T17:37:17.116Z,15.13
2019-03-12T17:39:46.110Z,13.80
2019-03-12T17:42:15.656Z,18.42
2019-03-12T17:44:46.439Z,13.72
2019-03-12T17:47:18.305Z,17.67
2019-03-12T17:49:48.127Z,20.48
2019-03-12T17:52:20.523Z,18.23
2019-03-12T17:54:49.556Z,15.75
2019-03-12T17:57:18.804Z,16.85
2019-03-12T17:59:51.770Z,19.00
2019-03-12T18:02:20.722Z,17.52
2019-03-12T18:04:50.718Z,19.50
2019-03-12T18:07:22.161Z,22.80
2019-03-12T18:09:52.476Z,20.95
2019-03-12T18:12:24.699Z,23.30
2019-03-12T18:14:55.587Z,17.57
2019-03-12T18:17:26.159Z,20.85
2019-03-12T18:19:58.443Z,23.50
2019-03-12T18:22:28.774Z,24.07
2019-03-12T18:25:04.066Z,18.27
2019-03-12T18:27:35.915Z,12.78
2019-03-12T18:30:06.471Z,15.15
2019-03-12T18:32:39.957Z,12.45
2019-03-12T18:35:13.911Z,6.95
2019-03-12T18:37:42.653Z,4.15
2019-03-12T18:40:12.841Z,4.28
2019-03-12T18:42:42.125Z,4.80
2019-03-12T18:45:12.501Z,4.47
2019-03-12T18:47:41.459Z,6.83
2019-03-12T18:50:11.859Z,5.90
2019-03-12T18:52:45.173Z,5.58
2019-03-12T18:55:17.408Z,7.67
2019-03-12T18:57:46.553Z,5.17
2019-03-12T19:00:24.673Z,2.70
2019-03-12T19:02:56.153Z,3.20
2019-03-12T19:05:28.033Z,7.00
2019-03-12T19:07:55.773Z,3.50
2019-03-12T19:10:34.708Z,6.78
2019-03-12T19:13:06.763Z,3.60
2019-03-12T19:15:38.559Z,7.08
2019-03-12T19:18:07.639Z,6.17
2019-03-12T19:20:36.618Z,5.92
2019-03-12T19:23:08.448Z,6.03
2019-03-12T19:25:38.971Z,8.98
2019-03-12T19:28:08.103Z,6.62
2019-03-12T19:30:37.062Z,3.42
2019-03-12T19:33:19.766Z,5.15
2019-03-12T19:35:50.715Z,7.90
2019-03-12T19:38:19.695Z,9.48
2019-03-12T19:40:50.313Z,6.28
2019-03-12T19:43:19.348Z,7.00
2019-03-12T19:45:52.821Z,7.05
2019-03-12T19:48:21.811Z,5.17
2019-03-12T19:50:51.017Z,6.10
2019-03-12T19:53:20.248Z,4.22
2019-03-12T19:55:50.932Z,4.90
2019-03-12T19:58:20.946Z,8.68
2019-03-12T20:03:21.098Z,5.95
2019-03-12T20:05:50.559Z,5.67
2019-03-12T20:08:21.720Z,10.58
2019-03-12T20:10:57.795Z,5.95
2019-03-12T20:13:33.826Z,8.60
2019-03-12T20:16:07.724Z,6.47
2019-03-12T20:18:43.794Z,6.60
2019-03-12T20:21:20.350Z,9.90
2019-03-12T20:23:59.368Z,11.08
2019-03-12T20:26:47.464Z,8.23
2019-03-12T20:29:35.942Z,4.25
2019-03-12T20:32:24.125Z,9.95
2019-03-12T20:35:09.575Z,7.75
2019-03-12T20:37:40.076Z,8.60
2019-03-12T20:40:47.397Z,9.55
2019-03-12T20:43:35.032Z,9.45
2019-03-12T20:46:14.047Z,11.83
2019-03-12T20:49:10.901Z,13.10
2019-03-12T20:51:54.010Z,9.18
2019-03-12T20:57:04.501Z,9.78
2019-03-12T20:59:43.707Z,8.50
2019-03-12T21:02:14.599Z,7.72
2019-03-12T21:05:01.627Z,7.72
2019-03-12T21:07:49.807Z,10.98
2019-03-12T21:10:23.228Z,9.58
2019-03-12T21:12:53.720Z,11.57
2019-03-12T21:15:25.248Z,9.73
2019-03-12T21:18:01.569Z,19.30
2019-03-12T21:20:38.079Z,11.05
2019-03-12T21:23:10.219Z,13.48
2019-03-12T21:25:49.403Z,9.95
2019-03-12T21:28:34.797Z,14.97
2019-03-12T21:31:05.761Z,11.90
2019-03-12T21:33:34.967Z,15.40
2019-03-12T21:36:07.827Z,15.47
2019-03-12T21:38:39.493Z,18.55
2019-03-12T21:41:10.664Z,9.75
2019-03-12T21:43:39.935Z,10.53
2019-03-12T21:46:10.683Z,11.35
2019-03-12T21:48:44.084Z,11.75
2019-03-12T21:51:13.064Z,15.13
2019-03-12T21:53:42.454Z,13.43
2019-03-12T21:56:11.571Z,16.67
2019-03-12T21:58:42.573Z,12.78
2019-03-12T22:01:15.054Z,17.57
2019-03-12T22:03:45.691Z,17.15
2019-03-12T22:06:19.139Z,19.17
2019-03-12T22:08:51.269Z,16.42
2019-03-12T22:11:20.259Z,13.00
2019-03-12T22:13:49.311Z,17.50
2019-03-12T22:16:19.637Z,15.10
2019-03-12T22:18:48.622Z,21.87
2019-03-12T22:21:19.217Z,10.25
2019-03-12T22:23:49.904Z,11.65
2019-03-12T22:26:18.849Z,14.63
2019-03-12T22:28:47.827Z,11.93
2019-03-12T22:31:18.044Z,12.80
2019-03-12T22:33:48.659Z,16.25
2019-03-12T22:36:17.650Z,11.85
2019-03-12T22:38:46.712Z,13.60
2019-03-12T22:41:18.621Z,13.25
2019-03-12T22:43:58.550Z,12.98
2019-03-12T22:46:27.538Z,14.55
2019-03-12T22:48:56.506Z,14.03
2019-03-12T22:51:25.787Z,25.08
2019-03-12T22:53:55.658Z,15.53
2019-03-12T22:56:24.672Z,17.82
2019-03-12T22:58:53.623Z,13.00
2019-03-12T23:01:44.836Z,17.05
2019-03-12T23:04:33.218Z,18.40
2019-03-12T23:07:21.405Z,15.78
2019-03-12T23:09:54.487Z,17.67
2019-03-12T23:12:25.086Z,15.13
2019-03-12T23:15:03.337Z,18.85
2019-03-12T23:17:33.974Z,16.12
2019-03-12T23:20:04.186Z,15.58
2019-03-12T23:22:38.650Z,18.07
2019-03-12T23:25:13.987Z,15.68
2019-03-12T23:27:46.752Z,22.67
2019-03-12T23:30:16.677Z,18.07
2019-03-12T23:32:45.782Z,12.73
2019-03-12T23:35:14.742Z,20.50
2019-03-12T23:37:45.504Z,10.55
2019-03-12T23:40:17.024Z,15.50
2019-03-12T23:42:47.888Z,21.50
2019-03-12T23:45:22.485Z,12.28
2019-03-12T23:47:51.501Z,14.75
2019-03-12T23:50:22.586Z,9.80
2019-03-12T23:52:51.532Z,18.20
2019-03-12T23:55:22.705Z,18.85
2019-03-12T23:58:08.082Z,14.50
